createdAt,value
2024-04-23T00:00:48.807Z,17.13
2024-04-23T00:03:41.581Z,17.07
2024-04-23T00:06:14.382Z,17.04
2024-04-23T00:08:47.125Z,17.01
2024-04-23T00:11:20.461Z,16.99
2024-04-23T00:13:53.370Z,16.98
2024-04-23T00:16:26.313Z,16.97
2024-04-23T00:18:59.191Z,16.95
2024-04-23T00:21:32.471Z,16.94
2024-04-23T00:24:05.707Z,16.90
2024-04-23T00:26:38.541Z,16.87
2024-04-23T00:29:13.438Z,16.82
2024-04-23T00:31:46.839Z,16.79
2024-04-23T00:34:20.017Z,16.76
2024-04-23T00:36:56.915Z,16.73
2024-04-23T00:39:30.213Z,16.71
2024-04-23T00:42:02.931Z,16.69
2024-04-23T00:44:35.429Z,16.64
2024-04-23T00:47:09.295Z,16.58
2024-04-23T00:49:42.816Z,16.54
2024-04-23T00:52:16.948Z,16.50
2024-04-23T00:54:50.367Z,16.45
2024-04-23T00:57:23.888Z,16.40
2024-04-23T00:59:56.932Z,16.35
2024-04-23T01:02:30.107Z,16.30
2024-04-23T01:05:03.530Z,16.26
2024-04-23T01:07:36.866Z,16.22
2024-04-23T01:10:10.794Z,16.19
2024-04-23T01:12:44.237Z,16.17
2024-04-23T01:15:17.499Z,16.16
2024-04-23T01:17:50.751Z,16.15
2024-04-23T01:20:24.321Z,16.13
2024-04-23T01:23:04.979Z,16.12
2024-04-23T01:25:38.493Z,16.11
2024-04-23T01:28:11.697Z,16.08
2024-04-23T01:30:45.235Z,16.06
2024-04-23T01:33:20.607Z,16.04
2024-04-23T01:35:53.888Z,16.01
2024-04-23T01:38:27.082Z,15.96
2024-04-23T01:40:59.952Z,15.90
2024-04-23T01:43:33.704Z,15.86
2024-04-23T01:46:06.625Z,15.83
2024-04-23T01:48:40.118Z,15.80
2024-04-23T01:51:13.392Z,15.77
2024-04-23T01:53:46.365Z,15.75
2024-04-23T01:56:19.194Z,15.73
2024-04-23T01:58:52.014Z,15.71
2024-04-23T02:01:25.705Z,15.69
2024-04-23T02:03:58.538Z,15.68
2024-04-23T02:06:32.188Z,15.68
2024-04-23T02:09:05.952Z,15.67
2024-04-23T02:11:39.297Z,15.65
2024-04-23T02:14:13.152Z,15.64
2024-04-23T02:16:46.018Z,15.61
2024-04-23T02:19:19.012Z,15.60
2024-04-23T02:21:51.960Z,15.60
2024-04-23T02:24:25.426Z,15.60
2024-04-23T02:26:58.234Z,15.61
2024-04-23T02:29:31.278Z,15.61
2024-04-23T02:32:05.115Z,15.63
2024-04-23T02:34:38.614Z,15.66
2024-04-23T02:37:12.183Z,15.71
2024-04-23T02:39:45.143Z,15.76
2024-04-23T02:42:18.170Z,15.82
2024-04-23T02:44:53.895Z,15.87
2024-04-23T02:47:27.165Z,15.93
2024-04-23T02:50:00.633Z,16.02
2024-04-23T02:52:36.499Z,16.11
2024-04-23T02:55:11.002Z,16.21
2024-04-23T02:57:43.793Z,16.40
2024-04-23T03:00:18.407Z,17.07
2024-04-23T03:02:51.401Z,18.12
2024-04-23T03:05:25.462Z,19.15
2024-04-23T03:07:59.467Z,20.20
2024-04-23T03:10:32.354Z,21.20
2024-04-23T03:13:06.972Z,22.15
2024-04-23T03:15:39.844Z,22.98
2024-04-23T03:18:13.518Z,23.79
2024-04-23T03:20:46.403Z,24.57
2024-04-23T03:23:19.692Z,25.18
2024-04-23T03:25:53.136Z,25.79
2024-04-23T03:28:26.121Z,26.52
2024-04-23T03:30:59.255Z,27.22
2024-04-23T03:33:33.700Z,27.92
2024-04-23T03:36:09.213Z,28.65
2024-04-23T03:38:41.999Z,29.44
2024-04-23T03:41:15.598Z,30.16
2024-04-23T03:43:50.762Z,30.82
2024-04-23T03:46:24.915Z,31.32
2024-04-23T03:48:57.467Z,31.68
2024-04-23T03:51:30.516Z,32.10
2024-04-23T03:54:03.066Z,32.73
2024-04-23T03:56:38.917Z,33.46
2024-04-23T03:59:12.943Z,34.16
2024-04-23T04:01:46.439Z,34.95
2024-04-23T04:04:36.754Z,35.57
2024-04-23T04:07:10.285Z,36.16
2024-04-23T04:09:44.051Z,36.66
2024-04-23T04:12:17.498Z,37.08
2024-04-23T04:14:50.924Z,37.50
2024-04-23T04:17:23.918Z,37.99
2024-04-23T04:19:56.917Z,38.00
2024-04-23T04:22:29.916Z,37.89
2024-04-23T04:25:02.974Z,37.69
2024-04-23T04:27:35.848Z,37.69
2024-04-23T04:30:11.579Z,38.00
2024-04-23T04:32:44.270Z,38.33
2024-04-23T04:35:17.378Z,38.70
2024-04-23T04:37:50.144Z,39.11
2024-04-23T04:40:23.079Z,39.55
2024-04-23T04:42:57.411Z,39.69
2024-04-23T04:45:30.506Z,40.12
2024-04-23T04:48:03.529Z,40.88
2024-04-23T04:50:36.687Z,41.60
2024-04-23T04:53:11.405Z,42.20
2024-04-23T04:55:44.518Z,42.77
2024-04-23T04:58:17.261Z,42.96
2024-04-23T05:00:50.042Z,43.14
2024-04-23T05:03:23.268Z,43.22
2024-04-23T05:05:58.369Z,43.28
2024-04-23T05:08:33.882Z,43.54
2024-04-23T05:11:07.009Z,44.07
2024-04-23T05:13:42.443Z,44.70
2024-04-23T05:16:15.285Z,45.52
2024-04-23T05:18:48.059Z,46.03
2024-04-23T05:21:21.088Z,46.60
2024-04-23T05:23:53.808Z,47.04
2024-04-23T05:26:26.688Z,46.98
2024-04-23T05:29:00.337Z,46.68
2024-04-23T05:31:51.471Z,46.51
2024-04-23T05:34:24.304Z,46.35
2024-04-23T05:36:57.067Z,46.76
2024-04-23T05:39:30.354Z,47.40
2024-04-23T05:42:03.072Z,47.62
2024-04-23T05:44:39.025Z,48.09
2024-04-23T05:47:11.940Z,48.45
2024-04-23T05:50:23.061Z,48.49
2024-04-23T05:53:34.438Z,48.26
2024-04-23T05:56:07.226Z,48.00
2024-04-23T05:58:39.987Z,47.65
2024-04-23T06:01:12.858Z,47.72
2024-04-23T06:03:45.539Z,48.08
2024-04-23T06:06:18.270Z,48.49
2024-04-23T06:08:51.044Z,48.58
2024-04-23T06:11:23.657Z,48.89
2024-04-23T06:14:09.337Z,49.40
2024-04-23T06:16:42.792Z,50.10
2024-04-23T06:19:15.598Z,50.70
2024-04-23T06:21:48.103Z,50.86
2024-04-23T06:24:20.814Z,50.49
2024-04-23T06:26:53.772Z,49.80
2024-04-23T06:29:26.472Z,49.39
2024-04-23T06:31:59.593Z,48.99
2024-04-23T06:34:32.370Z,48.99
2024-04-23T06:37:05.172Z,49.35
2024-04-23T06:39:38.582Z,49.62
2024-04-23T06:42:11.957Z,49.81
2024-04-23T06:44:44.899Z,50.11
2024-04-23T06:47:18.519Z,50.38
2024-04-23T06:49:51.511Z,50.06
2024-04-23T06:52:27.032Z,49.30
2024-04-23T06:55:02.653Z,48.73
2024-04-23T06:57:35.507Z,48.38
2024-04-23T07:00:10.442Z,47.71
2024-04-23T07:02:43.219Z,46.73
2024-04-23T07:05:16.255Z,46.22
2024-04-23T07:07:49.156Z,46.31
2024-04-23T07:10:22.063Z,46.08
2024-04-23T07:12:55.381Z,45.59
2024-04-23T07:15:28.383Z,45.18
2024-04-23T07:18:01.744Z,45.41
2024-04-23T07:20:36.699Z,45.38
2024-04-23T07:23:09.818Z,45.12
2024-04-23T07:25:42.568Z,44.73
2024-04-23T07:28:15.336Z,44.31
2024-04-23T07:30:48.266Z,43.49
2024-04-23T07:33:21.199Z,41.82
2024-04-23T07:35:54.207Z,40.21
2024-04-23T07:38:27.764Z,38.67
2024-04-23T07:41:01.875Z,37.28
2024-04-23T07:43:38.466Z,36.20
2024-04-23T07:46:12.325Z,35.22
2024-04-23T07:49:03.425Z,34.35
2024-04-23T07:51:37.089Z,33.25
2024-04-23T07:54:10.180Z,32.30
2024-04-23T07:56:44.732Z,31.60
2024-04-23T07:59:20.906Z,30.90
2024-04-23T08:01:55.256Z,30.31
2024-04-23T08:04:28.218Z,29.86
2024-04-23T08:07:00.781Z,29.46
2024-04-23T08:09:33.474Z,28.97
2024-04-23T08:12:10.539Z,28.55
2024-04-23T08:14:43.507Z,28.34
2024-04-23T08:17:20.947Z,28.11
2024-04-23T08:19:54.443Z,28.01
2024-04-23T08:22:28.229Z,27.95
2024-04-23T08:25:09.343Z,27.90
2024-04-23T08:27:42.275Z,27.95
2024-04-23T08:30:21.655Z,28.01
2024-04-23T08:32:54.941Z,28.07
2024-04-23T08:35:33.385Z,28.11
2024-04-23T08:38:06.245Z,28.15
2024-04-23T08:40:40.080Z,28.18
2024-04-23T08:43:22.179Z,28.25
2024-04-23T08:45:56.129Z,28.35
2024-04-23T08:48:37.689Z,28.40
2024-04-23T08:51:12.471Z,28.40
2024-04-23T08:53:46.394Z,28.38
2024-04-23T08:56:24.523Z,28.31
2024-04-23T08:58:57.325Z,28.23
2024-04-23T09:01:34.311Z,28.17
2024-04-23T09:04:07.755Z,28.15
2024-04-23T09:06:40.821Z,28.24
2024-04-23T09:09:17.081Z,28.32
2024-04-23T09:11:50.601Z,28.40
2024-04-23T09:14:23.654Z,28.47
2024-04-23T09:16:58.552Z,28.49
2024-04-23T09:19:34.539Z,28.48
2024-04-23T09:22:09.629Z,28.49
2024-04-23T09:24:42.731Z,28.50
2024-04-23T09:27:16.066Z,28.44
2024-04-23T09:29:48.937Z,28.44
2024-04-23T09:32:22.810Z,28.42
2024-04-23T09:35:02.410Z,28.42
2024-04-23T09:37:35.628Z,28.49
2024-04-23T09:40:10.365Z,28.54
2024-04-23T09:42:43.146Z,28.58
2024-04-23T09:45:18.477Z,28.64
2024-04-23T09:47:52.404Z,28.71
2024-04-23T09:50:30.162Z,28.71
2024-04-23T09:53:11.366Z,28.75
2024-04-23T09:55:44.747Z,28.76
2024-04-23T09:58:18.547Z,28.80
2024-04-23T10:00:51.928Z,28.83
2024-04-23T10:03:29.060Z,28.84
2024-04-23T10:06:05.949Z,28.83
2024-04-23T10:08:42.439Z,28.83
2024-04-23T10:11:13.627Z,28.82
2024-04-23T10:13:54.527Z,28.78
2024-04-23T10:16:31.307Z,28.78
2024-04-23T10:19:08.464Z,28.79
2024-04-23T10:21:43.587Z,28.80
2024-04-23T10:24:16.912Z,28.83
2024-04-23T10:26:50.215Z,28.86
2024-04-23T10:29:23.487Z,28.92
2024-04-23T10:31:56.213Z,28.98
2024-04-23T10:34:31.357Z,29.06
2024-04-23T10:37:06.914Z,29.12
2024-04-23T10:39:40.199Z,29.17
2024-04-23T10:42:14.281Z,29.23
2024-04-23T10:44:47.885Z,29.27
2024-04-23T10:47:20.901Z,29.30
2024-04-23T10:49:56.938Z,29.33
2024-04-23T10:52:28.454Z,29.38
2024-04-23T10:55:01.320Z,29.40
2024-04-23T10:57:34.880Z,29.40
2024-04-23T11:00:11.755Z,29.38
2024-04-23T11:02:44.633Z,29.29
2024-04-23T11:05:22.694Z,29.25
2024-04-23T11:07:56.287Z,29.26
2024-04-23T11:10:29.844Z,29.30
2024-04-23T11:13:06.965Z,29.36
2024-04-23T11:15:40.421Z,29.39
2024-04-23T11:18:25.132Z,29.37
2024-04-23T11:20:59.900Z,29.41
2024-04-23T11:23:34.453Z,29.42
2024-04-23T11:26:07.787Z,29.41
2024-04-23T11:28:41.792Z,29.44
2024-04-23T11:31:15.262Z,29.48
2024-04-23T11:33:49.023Z,29.52
2024-04-23T11:36:30.029Z,29.54
2024-04-23T11:39:09.199Z,29.54
2024-04-23T11:41:45.335Z,29.55
2024-04-23T11:44:19.265Z,29.57
2024-04-23T11:46:55.518Z,29.60
2024-04-23T11:49:30.251Z,29.63
2024-04-23T11:52:03.805Z,29.67
2024-04-23T11:54:38.730Z,29.68
2024-04-23T11:57:11.639Z,29.70
2024-04-23T11:59:45.473Z,29.70
2024-04-23T12:02:18.251Z,29.62
2024-04-23T12:04:51.389Z,29.58
2024-04-23T12:07:25.464Z,29.48
2024-04-23T12:10:05.199Z,29.41
2024-04-23T12:12:39.101Z,29.38
2024-04-23T12:15:12.612Z,29.40
2024-04-23T12:17:45.689Z,29.42
2024-04-23T12:20:19.101Z,29.41
2024-04-23T12:22:52.607Z,29.38
2024-04-23T12:25:26.509Z,29.38
2024-04-23T12:27:59.739Z,29.41
2024-04-23T12:30:35.073Z,29.44
2024-04-23T12:33:15.294Z,29.46
2024-04-23T12:35:48.599Z,29.51
2024-04-23T12:38:21.571Z,29.56
2024-04-23T12:40:56.629Z,29.58
2024-04-23T12:43:32.254Z,29.62
2024-04-23T12:46:06.357Z,29.63
2024-04-23T12:48:39.404Z,29.66
2024-04-23T12:51:13.304Z,29.70
2024-04-23T12:53:46.454Z,29.71
2024-04-23T12:56:19.703Z,29.71
2024-04-23T12:58:56.989Z,29.70
2024-04-23T13:01:39.049Z,29.64
2024-04-23T13:04:19.161Z,29.59
2024-04-23T13:06:52.161Z,29.54
2024-04-23T13:09:25.540Z,29.49
2024-04-23T13:12:01.008Z,29.50
2024-04-23T13:14:34.298Z,29.54
2024-04-23T13:17:08.039Z,29.57
2024-04-23T13:19:45.356Z,29.59
2024-04-23T13:22:23.428Z,29.57
2024-04-23T13:24:56.267Z,29.53
2024-04-23T13:27:29.135Z,29.56
2024-04-23T13:30:02.200Z,29.58
2024-04-23T13:32:38.460Z,29.53
2024-04-23T13:35:13.211Z,29.53
2024-04-23T13:37:46.748Z,29.54
2024-04-23T13:40:20.181Z,29.57
2024-04-23T13:42:53.229Z,29.57
2024-04-23T13:45:26.632Z,29.57
2024-04-23T13:48:01.029Z,29.59
2024-04-23T13:50:33.969Z,29.61
2024-04-23T13:53:08.350Z,29.65
2024-04-23T13:55:41.141Z,29.69
2024-04-23T13:58:14.231Z,29.71
2024-04-23T14:00:47.411Z,29.68
2024-04-23T14:03:21.160Z,29.62
2024-04-23T14:05:54.052Z,29.60
2024-04-23T14:08:27.088Z,29.56
2024-04-23T14:11:03.818Z,29.53
2024-04-23T14:13:38.205Z,29.49
2024-04-23T14:16:17.351Z,29.47
2024-04-23T14:18:50.599Z,29.44
2024-04-23T14:21:23.469Z,29.40
2024-04-23T14:23:56.662Z,29.31
2024-04-23T14:26:29.845Z,29.26
2024-04-23T14:29:06.084Z,29.19
2024-04-23T14:31:40.111Z,29.12
2024-04-23T14:34:13.213Z,29.05
2024-04-23T14:36:46.316Z,28.96
2024-04-23T14:39:19.466Z,28.88
2024-04-23T14:41:52.635Z,28.76
2024-04-23T14:44:26.178Z,28.62
2024-04-23T14:47:00.773Z,28.52
2024-04-23T14:49:33.817Z,28.40
2024-04-23T14:52:07.508Z,28.30
2024-04-23T14:54:40.544Z,28.19
2024-04-23T14:57:14.088Z,28.06
2024-04-23T14:59:49.422Z,27.94
2024-04-23T15:02:25.864Z,27.78
2024-04-23T15:04:59.266Z,27.63
2024-04-23T15:07:33.433Z,27.47
2024-04-23T15:10:07.544Z,27.32
2024-04-23T15:12:40.936Z,27.20
2024-04-23T15:15:14.322Z,27.02
2024-04-23T15:17:47.385Z,26.77
2024-04-23T15:20:20.730Z,26.58
2024-04-23T15:22:56.023Z,26.41
2024-04-23T15:25:30.166Z,26.23
2024-04-23T15:28:03.228Z,26.05
2024-04-23T15:30:36.145Z,25.89
2024-04-23T15:33:09.522Z,25.73
2024-04-23T15:35:42.059Z,25.59
2024-04-23T15:38:16.007Z,25.44
2024-04-23T15:40:48.954Z,25.29
2024-04-23T15:43:22.036Z,25.16
2024-04-23T15:45:55.479Z,25.02
2024-04-23T15:48:29.158Z,24.89
2024-04-23T15:51:02.344Z,24.77
2024-04-23T15:53:35.500Z,24.65
2024-04-23T15:56:12.618Z,24.53
2024-04-23T15:58:45.726Z,24.41
2024-04-23T16:01:18.868Z,24.28
2024-04-23T16:03:51.852Z,24.14
2024-04-23T16:06:26.086Z,24.02
2024-04-23T16:09:00.991Z,23.90
2024-04-23T16:11:35.163Z,23.78
2024-04-23T16:14:08.955Z,23.67
2024-04-23T16:16:41.599Z,23.58
2024-04-23T16:19:14.604Z,23.47
2024-04-23T16:21:47.352Z,23.38
2024-04-23T16:24:19.921Z,23.28
2024-04-23T16:26:53.007Z,23.20
2024-04-23T16:29:25.916Z,23.11
2024-04-23T16:31:58.695Z,23.03
2024-04-23T16:34:32.577Z,22.95
2024-04-23T16:37:05.777Z,22.84
2024-04-23T16:39:38.596Z,22.78
2024-04-23T16:42:11.930Z,22.70
2024-04-23T16:44:44.984Z,22.64
2024-04-23T16:47:18.429Z,22.56
2024-04-23T16:49:51.781Z,22.50
2024-04-23T16:52:24.497Z,22.45
2024-04-23T16:54:57.984Z,22.40
2024-04-23T16:57:31.623Z,22.34
2024-04-23T17:00:05.513Z,22.27
2024-04-23T17:02:38.730Z,22.20
2024-04-23T17:05:12.155Z,22.13
2024-04-23T17:07:45.337Z,22.05
2024-04-23T17:10:18.635Z,21.98
2024-04-23T17:12:52.037Z,21.90
2024-04-23T17:15:27.980Z,21.84
2024-04-23T17:18:01.228Z,21.77
2024-04-23T17:20:37.777Z,21.71
2024-04-23T17:23:10.947Z,21.66
2024-04-23T17:25:45.389Z,21.61
2024-04-23T17:28:19.607Z,21.56
2024-04-23T17:30:53.396Z,21.54
2024-04-23T17:33:29.524Z,21.53
2024-04-23T17:36:06.385Z,21.52
2024-04-23T17:38:41.743Z,21.50
2024-04-23T17:41:14.392Z,21.48
2024-04-23T17:43:47.347Z,21.46
2024-04-23T17:46:22.108Z,21.44
2024-04-23T17:48:55.672Z,21.41
2024-04-23T17:51:28.454Z,21.38
2024-04-23T17:54:01.879Z,21.35
2024-04-23T17:56:35.487Z,21.32
2024-04-23T17:59:09.249Z,21.28
2024-04-23T18:01:42.420Z,21.24
2024-04-23T18:04:15.898Z,21.19
2024-04-23T18:06:48.857Z,21.14
2024-04-23T18:09:21.950Z,21.08
2024-04-23T18:11:54.890Z,21.03
2024-04-23T18:14:27.729Z,20.98
2024-04-23T18:17:03.589Z,20.91
2024-04-23T18:19:36.435Z,20.86
2024-04-23T18:22:09.516Z,20.81
2024-04-23T18:24:42.526Z,20.73
2024-04-23T18:27:18.988Z,20.62
2024-04-23T18:29:52.188Z,20.51
2024-04-23T18:32:25.302Z,20.43
2024-04-23T18:34:58.315Z,20.38
2024-04-23T18:37:31.225Z,20.34
2024-04-23T18:40:04.087Z,20.32
2024-04-23T18:42:37.852Z,20.28
2024-04-23T18:45:11.610Z,20.25
2024-04-23T18:47:44.573Z,20.22
2024-04-23T18:50:18.141Z,20.18
2024-04-23T18:52:52.166Z,20.15
2024-04-23T18:55:30.338Z,20.11
2024-04-23T18:58:03.575Z,20.07
2024-04-23T19:00:36.682Z,20.01
2024-04-23T19:03:09.587Z,19.96
2024-04-23T19:05:42.660Z,19.92
2024-04-23T19:08:15.477Z,19.87
2024-04-23T19:10:48.606Z,19.83
2024-04-23T19:13:21.376Z,19.79
2024-04-23T19:15:53.871Z,19.75
2024-04-23T19:18:26.513Z,19.73
2024-04-23T19:21:01.699Z,19.69
2024-04-23T19:23:35.034Z,19.66
2024-04-23T19:26:08.685Z,19.63
2024-04-23T19:28:41.410Z,19.59
2024-04-23T19:31:14.636Z,19.54
2024-04-23T19:33:47.440Z,19.50
2024-04-23T19:36:20.249Z,19.45
2024-04-23T19:38:53.058Z,19.41
2024-04-23T19:41:25.831Z,19.38
2024-04-23T19:43:58.767Z,19.34
2024-04-23T19:46:33.909Z,19.29
2024-04-23T19:49:07.336Z,19.25
2024-04-23T19:51:40.419Z,19.22
2024-04-23T19:54:13.272Z,19.18
2024-04-23T19:56:59.938Z,19.11
2024-04-23T19:59:32.564Z,19.03
2024-04-23T20:02:05.808Z,18.97
2024-04-23T20:04:39.101Z,18.93
2024-04-23T20:07:12.087Z,18.88
2024-04-23T20:09:48.243Z,18.84
2024-04-23T20:12:21.277Z,18.80
2024-04-23T20:14:53.910Z,18.74
2024-04-23T20:17:26.969Z,18.69
2024-04-23T20:20:01.336Z,18.64
2024-04-23T20:22:34.518Z,18.61
2024-04-23T20:25:09.432Z,18.56
2024-04-23T20:27:42.746Z,18.52
2024-04-23T20:30:16.070Z,18.47
2024-04-23T20:32:49.199Z,18.43
2024-04-23T20:35:22.463Z,18.38
2024-04-23T20:37:55.219Z,18.35
2024-04-23T20:40:28.205Z,18.31
2024-04-23T20:43:00.761Z,18.29
2024-04-23T20:45:33.510Z,18.25
2024-04-23T20:48:08.039Z,18.18
2024-04-23T20:50:41.778Z,18.14
2024-04-23T20:53:14.578Z,18.10
2024-04-23T20:55:47.809Z,18.08
2024-04-23T20:58:22.163Z,18.06
2024-04-23T21:00:54.922Z,18.03
2024-04-23T21:03:27.671Z,18.00
2024-04-23T21:06:00.783Z,17.98
2024-04-23T21:08:33.733Z,17.97
2024-04-23T21:11:07.085Z,17.94
2024-04-23T21:13:40.080Z,17.91
2024-04-23T21:16:14.082Z,17.89
2024-04-23T21:18:48.890Z,17.86
2024-04-23T21:21:22.249Z,17.85
2024-04-23T21:23:54.933Z,17.83
2024-04-23T21:26:28.542Z,17.82
2024-04-23T21:29:01.687Z,17.81
2024-04-23T21:31:34.721Z,17.78
2024-04-23T21:34:08.785Z,17.77
2024-04-23T21:36:41.818Z,17.74
2024-04-23T21:39:14.852Z,17.73
2024-04-23T21:41:47.528Z,17.72
2024-04-23T21:44:20.923Z,17.70
2024-04-23T21:46:54.250Z,17.67
2024-04-23T21:49:28.021Z,17.65
2024-04-23T21:52:22.396Z,17.62
2024-04-23T21:54:55.995Z,17.61
2024-04-23T21:57:31.875Z,17.60
2024-04-23T22:00:06.407Z,17.59
2024-04-23T22:02:39.920Z,17.57
2024-04-23T22:05:14.182Z,17.57
2024-04-23T22:07:47.590Z,17.56
2024-04-23T22:10:23.210Z,17.58
2024-04-23T22:12:57.916Z,17.58
2024-04-23T22:15:38.070Z,17.57
2024-04-23T22:18:15.655Z,17.55
2024-04-23T22:20:48.657Z,17.53
2024-04-23T22:23:21.966Z,17.51
2024-04-23T22:25:55.316Z,17.50
2024-04-23T22:28:28.888Z,17.48
2024-04-23T22:31:04.991Z,17.47
2024-04-23T22:33:38.002Z,17.46
2024-04-23T22:36:11.710Z,17.44
2024-04-23T22:38:45.159Z,17.42
2024-04-23T22:41:18.308Z,17.42
2024-04-23T22:43:51.296Z,17.40
2024-04-23T22:46:24.236Z,17.39
2024-04-23T22:48:58.023Z,17.38
2024-04-23T22:51:31.124Z,17.38
2024-04-23T22:54:04.532Z,17.36
2024-04-23T22:56:37.500Z,17.34
2024-04-23T22:59:10.702Z,17.33
2024-04-23T23:01:44.615Z,17.32
2024-04-23T23:04:17.784Z,17.30
2024-04-23T23:06:50.851Z,17.28
2024-04-23T23:09:23.813Z,17.28
2024-04-23T23:11:57.220Z,17.27
2024-04-23T23:14:30.216Z,17.25
2024-04-23T23:17:03.443Z,17.24
2024-04-23T23:19:36.239Z,17.22
2024-04-23T23:22:09.063Z,17.21
2024-04-23T23:24:42.493Z,17.20
2024-04-23T23:27:15.923Z,17.18
2024-04-23T23:29:48.561Z,17.17
2024-04-23T23:32:21.619Z,17.15
2024-04-23T23:34:54.740Z,17.13
2024-04-23T23:37:27.525Z,17.12
2024-04-23T23:40:00.574Z,17.09
2024-04-23T23:42:33.562Z,17.07
2024-04-23T23:45:07.810Z,17.05
2024-04-23T23:47:41.165Z,17.02
2024-04-23T23:50:14.380Z,17.01
2024-04-23T23:52:47.369Z,17.00
2024-04-23T23:55:20.370Z,16.98
2024-04-23T23:57:54.602Z,16.95
